sensor_id;sensor_type;location;lat;lon;timestamp;P1;durP1;ratioP1;P2;durP2;ratioP2
42586;SDS011;28216;53.362;-6.288;2023-03-14T00:00:14;8.10;;;2.22;;
42586;SDS011;28216;53.362;-6.288;2023-03-14T00:02:40;9.57;;;2.05;;
42586;SDS011;28216;53.362;-6.288;2023-03-14T00:05:06;9.07;;;2.10;;
42586;SDS011;28216;53.362;-6.288;2023-03-14T00:07:33;6.72;;;1.98;;
42586;SDS011;28216;53.362;-6.288;2023-03-14T00:10:00;8.50;;;2.20;;
42586;SDS011;28216;53.362;-6.288;2023-03-14T00:12:29;7.40;;;1.92;;
42586;SDS011;28216;53.362;-6.288;2023-03-14T00:14:55;6.18;;;2.60;;
42586;SDS011;28216;53.362;-6.288;2023-03-14T00:17:20;10.25;;;2.20;;
42586;SDS011;28216;53.362;-6.288;2023-03-14T00:19:46;8.23;;;2.00;;
42586;SDS011;28216;53.362;-6.288;2023-03-14T00:22:11;6.43;;;2.13;;
42586;SDS011;28216;53.362;-6.288;2023-03-14T00:24:37;8.93;;;2.05;;
42586;SDS011;28216;53.362;-6.288;2023-03-14T00:27:02;8.82;;;2.17;;
42586;SDS011;28216;53.362;-6.288;2023-03-14T00:29:28;7.93;;;2.25;;
42586;SDS011;28216;53.362;-6.288;2023-03-14T00:31:53;8.85;;;2.50;;
42586;SDS011;28216;53.362;-6.288;2023-03-14T00:34:19;9.82;;;2.40;;
42586;SDS011;28216;53.362;-6.288;2023-03-14T00:36:45;11.32;;;2.40;;
42586;SDS011;28216;53.362;-6.288;2023-03-14T00:39:10;12.95;;;2.60;;
42586;SDS011;28216;53.362;-6.288;2023-03-14T00:41:36;15.23;;;2.60;;
42586;SDS011;28216;53.362;-6.288;2023-03-14T00:44:01;7.78;;;2.05;;
42586;SDS011;28216;53.362;-6.288;2023-03-14T00:46:27;8.25;;;2.00;;
42586;SDS011;28216;53.362;-6.288;2023-03-14T00:48:52;10.15;;;2.10;;
42586;SDS011;28216;53.362;-6.288;2023-03-14T00:51:18;8.32;;;2.20;;
42586;SDS011;28216;53.362;-6.288;2023-03-14T00:53:44;7.68;;;2.10;;
42586;SDS011;28216;53.362;-6.288;2023-03-14T00:56:10;7.20;;;2.22;;
42586;SDS011;28216;53.362;-6.288;2023-03-14T00:58:37;6.00;;;1.90;;
42586;SDS011;28216;53.362;-6.288;2023-03-14T01:01:07;7.10;;;2.25;;
42586;SDS011;28216;53.362;-6.288;2023-03-14T01:03:40;8.60;;;1.98;;
42586;SDS011;28216;53.362;-6.288;2023-03-14T01:06:07;9.05;;;2.40;;
42586;SDS011;28216;53.362;-6.288;2023-03-14T01:08:39;7.90;;;2.05;;
42586;SDS011;28216;53.362;-6.288;2023-03-14T01:11:09;9.52;;;2.00;;
42586;SDS011;28216;53.362;-6.288;2023-03-14T01:13:37;6.43;;;1.85;;
42586;SDS011;28216;53.362;-6.288;2023-03-14T01:16:04;6.28;;;2.13;;
42586;SDS011;28216;53.362;-6.288;2023-03-14T01:18:33;6.20;;;2.20;;
42586;SDS011;28216;53.362;-6.288;2023-03-14T01:21:00;6.85;;;1.92;;
42586;SDS011;28216;53.362;-6.288;2023-03-14T01:23:26;7.57;;;2.10;;
42586;SDS011;28216;53.362;-6.288;2023-03-14T01:25:51;6.68;;;2.08;;
42586;SDS011;28216;53.362;-6.288;2023-03-14T01:28:17;7.65;;;2.33;;
42586;SDS011;28216;53.362;-6.288;2023-03-14T01:30:43;9.18;;;1.83;;
42586;SDS011;28216;53.362;-6.288;2023-03-14T01:33:08;6.15;;;2.17;;
42586;SDS011;28216;53.362;-6.288;2023-03-14T01:35:33;10.98;;;2.10;;
42586;SDS011;28216;53.362;-6.288;2023-03-14T01:37:59;5.75;;;1.73;;
42586;SDS011;28216;53.362;-6.288;2023-03-14T01:40:25;4.57;;;1.80;;
42586;SDS011;28216;53.362;-6.288;2023-03-14T01:42:54;7.80;;;1.98;;
42586;SDS011;28216;53.362;-6.288;2023-03-14T01:51:19;4.80;;;1.42;;
42586;SDS011;28216;53.362;-6.288;2023-03-14T01:53:46;7.35;;;1.58;;
42586;SDS011;28216;53.362;-6.288;2023-03-14T01:56:14;5.68;;;1.77;;
42586;SDS011;28216;53.362;-6.288;2023-03-14T01:58:41;4.68;;;1.42;;
42586;SDS011;28216;53.362;-6.288;2023-03-14T02:01:11;7.13;;;1.45;;
42586;SDS011;28216;53.362;-6.288;2023-03-14T02:03:38;4.00;;;1.70;;
42586;SDS011;28216;53.362;-6.288;2023-03-14T02:06:12;4.20;;;1.60;;
42586;SDS011;28216;53.362;-6.288;2023-03-14T02:08:42;4.63;;;1.60;;
42586;SDS011;28216;53.362;-6.288;2023-03-14T02:11:12;4.43;;;1.33;;
42586;SDS011;28216;53.362;-6.288;2023-03-14T02:13:38;3.90;;;1.48;;
42586;SDS011;28216;53.362;-6.288;2023-03-14T02:16:04;2.67;;;1.38;;
42586;SDS011;28216;53.362;-6.288;2023-03-14T02:18:30;3.95;;;1.52;;
42586;SDS011;28216;53.362;-6.288;2023-03-14T02:26:28;3.65;;;1.60;;
42586;SDS011;28216;53.362;-6.288;2023-03-14T02:28:56;4.32;;;1.80;;
42586;SDS011;28216;53.362;-6.288;2023-03-14T02:31:22;5.10;;;1.60;;
42586;SDS011;28216;53.362;-6.288;2023-03-14T02:33:48;7.13;;;2.08;;
42586;SDS011;28216;53.362;-6.288;2023-03-14T02:36:15;4.65;;;2.15;;
42586;SDS011;28216;53.362;-6.288;2023-03-14T02:41:36;3.05;;;1.92;;
42586;SDS011;28216;53.362;-6.288;2023-03-14T02:44:02;3.65;;;1.95;;
42586;SDS011;28216;53.362;-6.288;2023-03-14T02:46:28;2.78;;;1.98;;
42586;SDS011;28216;53.362;-6.288;2023-03-14T02:49:10;2.22;;;1.58;;
42586;SDS011;28216;53.362;-6.288;2023-03-14T02:51:39;2.25;;;1.55;;
42586;SDS011;28216;53.362;-6.288;2023-03-14T02:54:06;3.17;;;1.30;;
42586;SDS011;28216;53.362;-6.288;2023-03-14T02:56:32;1.95;;;1.20;;
42586;SDS011;28216;53.362;-6.288;2023-03-14T02:58:58;3.25;;;1.30;;
42586;SDS011;28216;53.362;-6.288;2023-03-14T03:01:23;3.78;;;1.50;;
42586;SDS011;28216;53.362;-6.288;2023-03-14T03:03:49;1.63;;;1.13;;
42586;SDS011;28216;53.362;-6.288;2023-03-14T03:06:15;2.28;;;1.23;;
42586;SDS011;28216;53.362;-6.288;2023-03-14T03:08:40;3.25;;;1.48;;
42586;SDS011;28216;53.362;-6.288;2023-03-14T03:11:06;1.50;;;1.10;;
42586;SDS011;28216;53.362;-6.288;2023-03-14T03:13:31;1.73;;;1.25;;
42586;SDS011;28216;53.362;-6.288;2023-03-14T03:15:57;1.48;;;1.35;;
42586;SDS011;28216;53.362;-6.288;2023-03-14T03:18:22;2.03;;;1.13;;
42586;SDS011;28216;53.362;-6.288;2023-03-14T03:20:48;3.28;;;1.60;;
42586;SDS011;28216;53.362;-6.288;2023-03-14T03:23:13;2.65;;;1.52;;
42586;SDS011;28216;53.362;-6.288;2023-03-14T03:25:39;2.65;;;1.48;;
42586;SDS011;28216;53.362;-6.288;2023-03-14T03:28:04;3.30;;;1.40;;
42586;SDS011;28216;53.362;-6.288;2023-03-14T03:30:33;2.17;;;1.08;;
42586;SDS011;28216;53.362;-6.288;2023-03-14T03:33:05;2.25;;;1.17;;
42586;SDS011;28216;53.362;-6.288;2023-03-14T03:35:31;2.60;;;1.05;;
42586;SDS011;28216;53.362;-6.288;2023-03-14T03:37:57;2.60;;;1.17;;
42586;SDS011;28216;53.362;-6.288;2023-03-14T03:40:22;2.00;;;1.10;;
42586;SDS011;28216;53.362;-6.288;2023-03-14T03:42:48;2.28;;;1.08;;
42586;SDS011;28216;53.362;-6.288;2023-03-14T03:45:13;2.88;;;1.10;;
42586;SDS011;28216;53.362;-6.288;2023-03-14T03:47:39;4.55;;;1.48;;
42586;SDS011;28216;53.362;-6.288;2023-03-14T03:50:04;2.83;;;1.30;;
42586;SDS011;28216;53.362;-6.288;2023-03-14T03:52:30;3.78;;;1.20;;
42586;SDS011;28216;53.362;-6.288;2023-03-14T03:54:55;3.70;;;1.30;;
42586;SDS011;28216;53.362;-6.288;2023-03-14T03:57:21;2.42;;;1.10;;
42586;SDS011;28216;53.362;-6.288;2023-03-14T03:59:46;5.75;;;1.33;;
42586;SDS011;28216;53.362;-6.288;2023-03-14T04:02:12;3.13;;;1.30;;
42586;SDS011;28216;53.362;-6.288;2023-03-14T04:04:37;3.03;;;1.10;;
42586;SDS011;28216;53.362;-6.288;2023-03-14T04:07:03;2.67;;;1.30;;
42586;SDS011;28216;53.362;-6.288;2023-03-14T04:09:29;2.67;;;1.20;;
42586;SDS011;28216;53.362;-6.288;2023-03-14T04:11:55;6.20;;;1.30;;
42586;SDS011;28216;53.362;-6.288;2023-03-14T04:14:20;3.65;;;1.30;;
42586;SDS011;28216;53.362;-6.288;2023-03-14T04:16:46;3.60;;;1.42;;
42586;SDS011;28216;53.362;-6.288;2023-03-14T04:19:12;3.38;;;1.30;;
42586;SDS011;28216;53.362;-6.288;2023-03-14T04:21:37;4.88;;;1.30;;
42586;SDS011;28216;53.362;-6.288;2023-03-14T04:24:05;5.22;;;1.38;;
42586;SDS011;28216;53.362;-6.288;2023-03-14T04:26:31;4.78;;;1.30;;
42586;SDS011;28216;53.362;-6.288;2023-03-14T04:28:56;2.88;;;0.93;;
42586;SDS011;28216;53.362;-6.288;2023-03-14T04:31:22;4.20;;;1.15;;
42586;SDS011;28216;53.362;-6.288;2023-03-14T04:33:48;2.10;;;1.10;;
42586;SDS011;28216;53.362;-6.288;2023-03-14T04:36:13;3.75;;;1.20;;
42586;SDS011;28216;53.362;-6.288;2023-03-14T04:38:39;4.43;;;1.30;;
42586;SDS011;28216;53.362;-6.288;2023-03-14T04:41:05;4.20;;;1.15;;
42586;SDS011;28216;53.362;-6.288;2023-03-14T04:43:31;4.40;;;1.13;;
42586;SDS011;28216;53.362;-6.288;2023-03-14T04:45:57;1.80;;;1.05;;
42586;SDS011;28216;53.362;-6.288;2023-03-14T04:48:23;3.17;;;0.90;;
42586;SDS011;28216;53.362;-6.288;2023-03-14T04:50:49;3.35;;;1.77;;
42586;SDS011;28216;53.362;-6.288;2023-03-14T04:53:16;4.55;;;1.08;;
42586;SDS011;28216;53.362;-6.288;2023-03-14T04:55:47;3.78;;;1.20;;
42586;SDS011;28216;53.362;-6.288;2023-03-14T04:58:14;3.60;;;1.00;;
42586;SDS011;28216;53.362;-6.288;2023-03-14T05:00:39;5.80;;;1.20;;
42586;SDS011;28216;53.362;-6.288;2023-03-14T05:03:05;5.30;;;1.00;;
42586;SDS011;28216;53.362;-6.288;2023-03-14T05:05:30;5.90;;;1.08;;
42586;SDS011;28216;53.362;-6.288;2023-03-14T05:07:56;3.95;;;1.30;;
42586;SDS011;28216;53.362;-6.288;2023-03-14T05:10:21;6.78;;;1.50;;
42586;SDS011;28216;53.362;-6.288;2023-03-14T05:12:47;3.00;;;1.08;;
42586;SDS011;28216;53.362;-6.288;2023-03-14T05:15:12;4.10;;;1.23;;
42586;SDS011;28216;53.362;-6.288;2023-03-14T05:17:37;3.40;;;1.17;;
42586;SDS011;28216;53.362;-6.288;2023-03-14T05:20:03;3.72;;;1.00;;
42586;SDS011;28216;53.362;-6.288;2023-03-14T05:22:33;4.43;;;1.00;;
42586;SDS011;28216;53.362;-6.288;2023-03-14T05:24:59;5.22;;;1.10;;
42586;SDS011;28216;53.362;-6.288;2023-03-14T05:27:25;7.07;;;1.40;;
42586;SDS011;28216;53.362;-6.288;2023-03-14T05:29:50;2.63;;;0.98;;
42586;SDS011;28216;53.362;-6.288;2023-03-14T05:32:16;2.58;;;0.90;;
42586;SDS011;28216;53.362;-6.288;2023-03-14T05:34:41;2.85;;;1.10;;
42586;SDS011;28216;53.362;-6.288;2023-03-14T05:37:07;4.03;;;1.23;;
42586;SDS011;28216;53.362;-6.288;2023-03-14T05:39:32;3.92;;;0.98;;
42586;SDS011;28216;53.362;-6.288;2023-03-14T05:41:57;2.83;;;1.05;;
42586;SDS011;28216;53.362;-6.288;2023-03-14T05:44:23;3.25;;;1.00;;
42586;SDS011;28216;53.362;-6.288;2023-03-14T05:46:49;3.10;;;0.93;;
42586;SDS011;28216;53.362;-6.288;2023-03-14T05:49:14;3.35;;;0.90;;
42586;SDS011;28216;53.362;-6.288;2023-03-14T05:51:39;1.52;;;0.80;;
42586;SDS011;28216;53.362;-6.288;2023-03-14T05:54:05;3.03;;;1.10;;
42586;SDS011;28216;53.362;-6.288;2023-03-14T05:56:31;4.65;;;1.15;;
42586;SDS011;28216;53.362;-6.288;2023-03-14T05:58:56;3.88;;;1.05;;
42586;SDS011;28216;53.362;-6.288;2023-03-14T06:01:22;2.50;;;1.27;;
42586;SDS011;28216;53.362;-6.288;2023-03-14T06:03:47;2.72;;;1.10;;
42586;SDS011;28216;53.362;-6.288;2023-03-14T06:06:12;1.92;;;0.90;;
42586;SDS011;28216;53.362;-6.288;2023-03-14T06:08:38;4.88;;;1.27;;
42586;SDS011;28216;53.362;-6.288;2023-03-14T06:11:04;4.18;;;1.20;;
42586;SDS011;28216;53.362;-6.288;2023-03-14T06:13:29;3.28;;;1.10;;
42586;SDS011;28216;53.362;-6.288;2023-03-14T06:15:55;3.05;;;1.30;;
42586;SDS011;28216;53.362;-6.288;2023-03-14T06:18:20;2.85;;;0.90;;
42586;SDS011;28216;53.362;-6.288;2023-03-14T06:20:46;3.28;;;1.00;;
42586;SDS011;28216;53.362;-6.288;2023-03-14T06:23:11;3.63;;;1.08;;
42586;SDS011;28216;53.362;-6.288;2023-03-14T06:25:37;2.20;;;1.00;;
42586;SDS011;28216;53.362;-6.288;2023-03-14T06:28:02;4.53;;;1.30;;
42586;SDS011;28216;53.362;-6.288;2023-03-14T06:30:28;4.32;;;1.17;;
42586;SDS011;28216;53.362;-6.288;2023-03-14T06:32:54;4.18;;;1.10;;
42586;SDS011;28216;53.362;-6.288;2023-03-14T06:35:20;5.38;;;1.30;;
42586;SDS011;28216;53.362;-6.288;2023-03-14T06:37:46;4.18;;;1.20;;
42586;SDS011;28216;53.362;-6.288;2023-03-14T06:40:12;1.98;;;1.10;;
42586;SDS011;28216;53.362;-6.288;2023-03-14T06:42:42;2.22;;;1.23;;
42586;SDS011;28216;53.362;-6.288;2023-03-14T06:45:08;2.13;;;1.40;;
42586;SDS011;28216;53.362;-6.288;2023-03-14T06:47:34;3.88;;;1.10;;
42586;SDS011;28216;53.362;-6.288;2023-03-14T06:49:59;3.33;;;1.20;;
42586;SDS011;28216;53.362;-6.288;2023-03-14T06:52:25;3.65;;;1.40;;
42586;SDS011;28216;53.362;-6.288;2023-03-14T06:54:50;2.72;;;1.02;;
42586;SDS011;28216;53.362;-6.288;2023-03-14T06:57:18;5.55;;;1.40;;
42586;SDS011;28216;53.362;-6.288;2023-03-14T06:59:52;3.63;;;1.30;;
42586;SDS011;28216;53.362;-6.288;2023-03-14T07:02:17;5.15;;;1.30;;
42586;SDS011;28216;53.362;-6.288;2023-03-14T07:04:43;3.97;;;0.95;;
42586;SDS011;28216;53.362;-6.288;2023-03-14T07:07:08;4.88;;;1.50;;
42586;SDS011;28216;53.362;-6.288;2023-03-14T07:09:34;3.20;;;1.23;;
42586;SDS011;28216;53.362;-6.288;2023-03-14T07:12:01;2.42;;;1.30;;
42586;SDS011;28216;53.362;-6.288;2023-03-14T07:14:29;4.22;;;1.50;;
42586;SDS011;28216;53.362;-6.288;2023-03-14T07:16:57;4.13;;;1.15;;
42586;SDS011;28216;53.362;-6.288;2023-03-14T07:19:23;5.07;;;1.30;;
42586;SDS011;28216;53.362;-6.288;2023-03-14T07:21:48;4.55;;;1.20;;
42586;SDS011;28216;53.362;-6.288;2023-03-14T07:24:21;3.70;;;1.48;;
42586;SDS011;28216;53.362;-6.288;2023-03-14T07:29:40;3.65;;;1.30;;
42586;SDS011;28216;53.362;-6.288;2023-03-14T07:32:05;3.53;;;1.15;;
42586;SDS011;28216;53.362;-6.288;2023-03-14T07:34:41;3.23;;;1.30;;
42586;SDS011;28216;53.362;-6.288;2023-03-14T07:37:14;6.18;;;1.40;;
42586;SDS011;28216;53.362;-6.288;2023-03-14T07:39:43;2.88;;;1.30;;
42586;SDS011;28216;53.362;-6.288;2023-03-14T07:42:08;4.43;;;1.30;;
42586;SDS011;28216;53.362;-6.288;2023-03-14T07:44:34;3.05;;;1.30;;
42586;SDS011;28216;53.362;-6.288;2023-03-14T07:46:59;5.68;;;1.38;;
42586;SDS011;28216;53.362;-6.288;2023-03-14T07:49:25;4.43;;;1.33;;
42586;SDS011;28216;53.362;-6.288;2023-03-14T07:51:50;4.70;;;1.50;;
42586;SDS011;28216;53.362;-6.288;2023-03-14T07:54:16;4.15;;;1.30;;
42586;SDS011;28216;53.362;-6.288;2023-03-14T07:56:42;7.55;;;1.70;;
42586;SDS011;28216;53.362;-6.288;2023-03-14T07:59:07;3.10;;;1.55;;
42586;SDS011;28216;53.362;-6.288;2023-03-14T08:01:33;6.63;;;1.80;;
42586;SDS011;28216;53.362;-6.288;2023-03-14T08:03:58;5.72;;;2.13;;
42586;SDS011;28216;53.362;-6.288;2023-03-14T08:06:24;5.03;;;1.40;;
42586;SDS011;28216;53.362;-6.288;2023-03-14T08:08:49;5.35;;;1.45;;
42586;SDS011;28216;53.362;-6.288;2023-03-14T08:11:15;7.95;;;1.83;;
42586;SDS011;28216;53.362;-6.288;2023-03-14T08:13:40;5.30;;;1.55;;
42586;SDS011;28216;53.362;-6.288;2023-03-14T08:16:06;4.28;;;1.50;;
42586;SDS011;28216;53.362;-6.288;2023-03-14T08:18:32;7.38;;;1.67;;
42586;SDS011;28216;53.362;-6.288;2023-03-14T08:20:58;4.60;;;1.48;;
42586;SDS011;28216;53.362;-6.288;2023-03-14T08:23:23;5.55;;;1.45;;
42586;SDS011;28216;53.362;-6.288;2023-03-14T08:25:51;5.97;;;1.75;;
42586;SDS011;28216;53.362;-6.288;2023-03-14T08:28:20;7.22;;;2.13;;
42586;SDS011;28216;53.362;-6.288;2023-03-14T08:30:45;6.53;;;2.03;;
42586;SDS011;28216;53.362;-6.288;2023-03-14T08:33:10;7.57;;;1.98;;
42586;SDS011;28216;53.362;-6.288;2023-03-14T08:35:39;6.40;;;1.55;;
42586;SDS011;28216;53.362;-6.288;2023-03-14T08:38:04;3.90;;;1.60;;
42586;SDS011;28216;53.362;-6.288;2023-03-14T08:40:30;5.78;;;2.05;;
42586;SDS011;28216;53.362;-6.288;2023-03-14T08:42:55;3.72;;;1.40;;
42586;SDS011;28216;53.362;-6.288;2023-03-14T08:45:21;8.68;;;1.75;;
42586;SDS011;28216;53.362;-6.288;2023-03-14T08:47:48;7.03;;;1.83;;
42586;SDS011;28216;53.362;-6.288;2023-03-14T08:50:14;7.97;;;2.08;;
42586;SDS011;28216;53.362;-6.288;2023-03-14T08:52:39;4.35;;;1.80;;
42586;SDS011;28216;53.362;-6.288;2023-03-14T08:55:08;4.28;;;1.70;;
42586;SDS011;28216;53.362;-6.288;2023-03-14T08:57:34;6.97;;;1.75;;
42586;SDS011;28216;53.362;-6.288;2023-03-14T08:59:59;4.68;;;1.90;;
42586;SDS011;28216;53.362;-6.288;2023-03-14T09:02:25;8.00;;;2.53;;
42586;SDS011;28216;53.362;-6.288;2023-03-14T09:04:51;5.57;;;2.08;;
42586;SDS011;28216;53.362;-6.288;2023-03-14T09:07:17;7.15;;;1.98;;
42586;SDS011;28216;53.362;-6.288;2023-03-14T09:09:43;6.78;;;2.15;;
42586;SDS011;28216;53.362;-6.288;2023-03-14T09:12:08;6.00;;;1.63;;
42586;SDS011;28216;53.362;-6.288;2023-03-14T09:14:34;9.00;;;2.15;;
42586;SDS011;28216;53.362;-6.288;2023-03-14T09:16:59;6.40;;;1.85;;
42586;SDS011;28216;53.362;-6.288;2023-03-14T09:19:25;7.45;;;2.05;;
42586;SDS011;28216;53.362;-6.288;2023-03-14T09:21:50;6.05;;;1.65;;
42586;SDS011;28216;53.362;-6.288;2023-03-14T09:24:18;6.60;;;1.83;;
42586;SDS011;28216;53.362;-6.288;2023-03-14T09:26:54;7.18;;;2.13;;
42586;SDS011;28216;53.362;-6.288;2023-03-14T09:29:20;7.28;;;1.90;;
42586;SDS011;28216;53.362;-6.288;2023-03-14T09:31:45;6.70;;;1.90;;
42586;SDS011;28216;53.362;-6.288;2023-03-14T09:34:10;8.13;;;1.80;;
42586;SDS011;28216;53.362;-6.288;2023-03-14T09:36:36;7.32;;;1.80;;
42586;SDS011;28216;53.362;-6.288;2023-03-14T09:39:03;7.32;;;2.15;;
42586;SDS011;28216;53.362;-6.288;2023-03-14T09:41:30;7.10;;;2.00;;
42586;SDS011;28216;53.362;-6.288;2023-03-14T09:47:03;7.72;;;2.45;;
42586;SDS011;28216;53.362;-6.288;2023-03-14T09:49:34;8.25;;;1.80;;
42586;SDS011;28216;53.362;-6.288;2023-03-14T09:52:05;6.90;;;1.70;;
42586;SDS011;28216;53.362;-6.288;2023-03-14T09:54:39;8.30;;;2.28;;
42586;SDS011;28216;53.362;-6.288;2023-03-14T10:00:02;6.28;;;2.05;;
42586;SDS011;28216;53.362;-6.288;2023-03-14T10:02:39;10.88;;;1.85;;
42586;SDS011;28216;53.362;-6.288;2023-03-14T10:05:17;9.70;;;2.13;;
42586;SDS011;28216;53.362;-6.288;2023-03-14T10:07:45;9.15;;;1.70;;
42586;SDS011;28216;53.362;-6.288;2023-03-14T10:10:13;10.40;;;1.98;;
42586;SDS011;28216;53.362;-6.288;2023-03-14T10:12:45;9.10;;;2.00;;
42586;SDS011;28216;53.362;-6.288;2023-03-14T10:15:13;6.97;;;2.00;;
42586;SDS011;28216;53.362;-6.288;2023-03-14T10:17:48;7.40;;;1.60;;
42586;SDS011;28216;53.362;-6.288;2023-03-14T10:20:36;5.72;;;1.75;;
42586;SDS011;28216;53.362;-6.288;2023-03-14T10:23:06;5.70;;;1.45;;
42586;SDS011;28216;53.362;-6.288;2023-03-14T10:25:45;6.65;;;1.88;;
42586;SDS011;28216;53.362;-6.288;2023-03-14T10:28:25;6.45;;;1.83;;
42586;SDS011;28216;53.362;-6.288;2023-03-14T10:30:50;6.60;;;1.90;;
42586;SDS011;28216;53.362;-6.288;2023-03-14T10:33:21;6.43;;;1.80;;
42586;SDS011;28216;53.362;-6.288;2023-03-14T10:35:52;7.68;;;1.70;;
42586;SDS011;28216;53.362;-6.288;2023-03-14T10:38:22;6.55;;;1.75;;
42586;SDS011;28216;53.362;-6.288;2023-03-14T10:40:49;8.27;;;1.58;;
42586;SDS011;28216;53.362;-6.288;2023-03-14T10:46:15;4.32;;;1.40;;
42586;SDS011;28216;53.362;-6.288;2023-03-14T10:48:43;6.72;;;1.70;;
42586;SDS011;28216;53.362;-6.288;2023-03-14T10:53:46;4.97;;;1.70;;
42586;SDS011;28216;53.362;-6.288;2023-03-14T10:56:20;6.95;;;1.52;;
42586;SDS011;28216;53.362;-6.288;2023-03-14T10:58:48;7.38;;;1.60;;
42586;SDS011;28216;53.362;-6.288;2023-03-14T11:15:02;8.50;;;1.58;;
42586;SDS011;28216;53.362;-6.288;2023-03-14T11:23:30;5.57;;;2.15;;
42586;SDS011;28216;53.362;-6.288;2023-03-14T11:28:54;7.03;;;2.10;;
42586;SDS011;28216;53.362;-6.288;2023-03-14T11:31:29;5.45;;;1.45;;
42586;SDS011;28216;53.362;-6.288;2023-03-14T11:37:06;6.32;;;1.35;;
42586;SDS011;28216;53.362;-6.288;2023-03-14T11:39:40;5.93;;;1.73;;
42586;SDS011;28216;53.362;-6.288;2023-03-14T11:42:12;5.18;;;1.45;;
42586;SDS011;28216;53.362;-6.288;2023-03-14T11:44:41;4.13;;;1.20;;
42586;SDS011;28216;53.362;-6.288;2023-03-14T11:50:00;4.82;;;1.35;;
42586;SDS011;28216;53.362;-6.288;2023-03-14T11:55:17;4.38;;;1.00;;
42586;SDS011;28216;53.362;-6.288;2023-03-14T11:57:47;4.82;;;1.45;;
42586;SDS011;28216;53.362;-6.288;2023-03-14T12:00:20;4.28;;;1.10;;
42586;SDS011;28216;53.362;-6.288;2023-03-14T12:05:45;4.50;;;1.33;;
42586;SDS011;28216;53.362;-6.288;2023-03-14T12:11:33;3.05;;;1.20;;
42586;SDS011;28216;53.362;-6.288;2023-03-14T12:13:59;1.90;;;1.00;;
42586;SDS011;28216;53.362;-6.288;2023-03-14T12:18:57;6.20;;;1.30;;
42586;SDS011;28216;53.362;-6.288;2023-03-14T12:21:48;5.10;;;1.20;;
42586;SDS011;28216;53.362;-6.288;2023-03-14T12:24:22;2.55;;;1.13;;
42586;SDS011;28216;53.362;-6.288;2023-03-14T12:26:53;3.77;;;1.20;;
42586;SDS011;28216;53.362;-6.288;2023-03-14T12:29:22;3.28;;;1.10;;
42586;SDS011;28216;53.362;-6.288;2023-03-14T12:32:09;2.45;;;1.17;;
42586;SDS011;28216;53.362;-6.288;2023-03-14T12:34:47;3.47;;;1.20;;
42586;SDS011;28216;53.362;-6.288;2023-03-14T12:37:29;2.28;;;0.95;;
42586;SDS011;28216;53.362;-6.288;2023-03-14T12:40:18;3.15;;;0.90;;
42586;SDS011;28216;53.362;-6.288;2023-03-14T12:42:54;2.30;;;0.75;;
42586;SDS011;28216;53.362;-6.288;2023-03-14T12:47:55;3.17;;;0.90;;
42586;SDS011;28216;53.362;-6.288;2023-03-14T12:51:13;3.20;;;1.10;;
42586;SDS011;28216;53.362;-6.288;2023-03-14T12:59:14;2.95;;;0.95;;
42586;SDS011;28216;53.362;-6.288;2023-03-14T13:01:53;2.92;;;0.90;;
42586;SDS011;28216;53.362;-6.288;2023-03-14T13:04:26;1.98;;;0.90;;
42586;SDS011;28216;53.362;-6.288;2023-03-14T13:06:56;2.92;;;1.23;;
42586;SDS011;28216;53.362;-6.288;2023-03-14T13:12:10;1.70;;;0.90;;
42586;SDS011;28216;53.362;-6.288;2023-03-14T13:14:43;1.38;;;0.95;;
42586;SDS011;28216;53.362;-6.288;2023-03-14T13:17:10;1.48;;;0.93;;
42586;SDS011;28216;53.362;-6.288;2023-03-14T13:19:38;2.55;;;1.05;;
42586;SDS011;28216;53.362;-6.288;2023-03-14T13:22:05;4.82;;;1.50;;
42586;SDS011;28216;53.362;-6.288;2023-03-14T13:27:08;2.13;;;1.10;;
42586;SDS011;28216;53.362;-6.288;2023-03-14T13:29:44;1.33;;;0.93;;
42586;SDS011;28216;53.362;-6.288;2023-03-14T13:32:19;2.28;;;1.10;;
42586;SDS011;28216;53.362;-6.288;2023-03-14T13:34:47;1.00;;;0.90;;
42586;SDS011;28216;53.362;-6.288;2023-03-14T13:37:21;3.53;;;1.00;;
42586;SDS011;28216;53.362;-6.288;2023-03-14T13:39:55;2.75;;;0.90;;
42586;SDS011;28216;53.362;-6.288;2023-03-14T13:42:26;1.45;;;0.85;;
42586;SDS011;28216;53.362;-6.288;2023-03-14T13:44:54;2.58;;;1.20;;
42586;SDS011;28216;53.362;-6.288;2023-03-14T13:47:22;1.88;;;1.13;;
42586;SDS011;28216;53.362;-6.288;2023-03-14T13:49:48;1.65;;;0.98;;
42586;SDS011;28216;53.362;-6.288;2023-03-14T13:54:47;1.58;;;0.88;;
42586;SDS011;28216;53.362;-6.288;2023-03-14T13:57:13;1.70;;;1.00;;
42586;SDS011;28216;53.362;-6.288;2023-03-14T13:59:38;1.77;;;1.02;;
42586;SDS011;28216;53.362;-6.288;2023-03-14T14:02:11;2.72;;;1.10;;
42586;SDS011;28216;53.362;-6.288;2023-03-14T14:04:39;1.55;;;0.95;;
42586;SDS011;28216;53.362;-6.288;2023-03-14T14:07:08;1.65;;;0.90;;
42586;SDS011;28216;53.362;-6.288;2023-03-14T14:09:39;2.10;;;1.17;;
42586;SDS011;28216;53.362;-6.288;2023-03-14T14:12:13;1.20;;;1.10;;
42586;SDS011;28216;53.362;-6.288;2023-03-14T14:17:44;4.88;;;1.30;;
42586;SDS011;28216;53.362;-6.288;2023-03-14T14:20:20;1.50;;;1.08;;
42586;SDS011;28216;53.362;-6.288;2023-03-14T14:22:59;1.30;;;1.20;;
42586;SDS011;28216;53.362;-6.288;2023-03-14T14:25:28;3.88;;;1.08;;
42586;SDS011;28216;53.362;-6.288;2023-03-14T14:27:54;1.55;;;1.10;;
42586;SDS011;28216;53.362;-6.288;2023-03-14T14:32:46;1.70;;;1.10;;
42586;SDS011;28216;53.362;-6.288;2023-03-14T14:35:23;1.45;;;1.02;;
42586;SDS011;28216;53.362;-6.288;2023-03-14T14:37:48;1.13;;;1.00;;
42586;SDS011;28216;53.362;-6.288;2023-03-14T14:42:48;3.50;;;1.10;;
42586;SDS011;28216;53.362;-6.288;2023-03-14T14:45:21;1.27;;;0.75;;
42586;SDS011;28216;53.362;-6.288;2023-03-14T14:50:31;1.73;;;1.10;;
42586;SDS011;28216;53.362;-6.288;2023-03-14T14:52:59;0.70;;;0.70;;
42586;SDS011;28216;53.362;-6.288;2023-03-14T14:55:32;3.35;;;0.98;;
42586;SDS011;28216;53.362;-6.288;2023-03-14T14:58:10;2.42;;;1.75;;
42586;SDS011;28216;53.362;-6.288;2023-03-14T15:00:49;3.88;;;1.50;;
42586;SDS011;28216;53.362;-6.288;2023-03-14T15:03:20;1.52;;;1.30;;
42586;SDS011;28216;53.362;-6.288;2023-03-14T15:05:47;1.15;;;0.98;;
42586;SDS011;28216;53.362;-6.288;2023-03-14T15:08:14;3.28;;;0.90;;
42586;SDS011;28216;53.362;-6.288;2023-03-14T15:10:40;3.15;;;1.35;;
42586;SDS011;28216;53.362;-6.288;2023-03-14T15:13:06;1.10;;;1.00;;
42586;SDS011;28216;53.362;-6.288;2023-03-14T15:15:32;2.28;;;1.30;;
42586;SDS011;28216;53.362;-6.288;2023-03-14T15:18:01;1.08;;;0.93;;
42586;SDS011;28216;53.362;-6.288;2023-03-14T15:20:27;1.75;;;0.90;;
42586;SDS011;28216;53.362;-6.288;2023-03-14T15:22:53;3.03;;;1.10;;
42586;SDS011;28216;53.362;-6.288;2023-03-14T15:25:18;1.15;;;0.80;;
42586;SDS011;28216;53.362;-6.288;2023-03-14T15:27:44;1.80;;;0.70;;
42586;SDS011;28216;53.362;-6.288;2023-03-14T15:30:10;1.58;;;0.70;;
42586;SDS011;28216;53.362;-6.288;2023-03-14T15:32:38;1.73;;;1.08;;
42586;SDS011;28216;53.362;-6.288;2023-03-14T15:35:05;1.10;;;1.00;;
42586;SDS011;28216;53.362;-6.288;2023-03-14T15:37:32;0.80;;;0.77;;
42586;SDS011;28216;53.362;-6.288;2023-03-14T15:39:58;1.35;;;1.10;;
42586;SDS011;28216;53.362;-6.288;2023-03-14T15:42:24;1.27;;;1.00;;
42586;SDS011;28216;53.362;-6.288;2023-03-14T15:44:49;3.45;;;0.98;;
42586;SDS011;28216;53.362;-6.288;2023-03-14T15:47:15;1.75;;;1.10;;
42586;SDS011;28216;53.362;-6.288;2023-03-14T15:49:41;1.77;;;1.35;;
42586;SDS011;28216;53.362;-6.288;2023-03-14T15:52:07;1.27;;;1.17;;
42586;SDS011;28216;53.362;-6.288;2023-03-14T15:54:33;1.48;;;1.20;;
42586;SDS011;28216;53.362;-6.288;2023-03-14T15:56:59;2.55;;;1.42;;
42586;SDS011;28216;53.362;-6.288;2023-03-14T15:59:27;1.92;;;1.33;;
42586;SDS011;28216;53.362;-6.288;2023-03-14T16:01:52;3.72;;;2.22;;
42586;SDS011;28216;53.362;-6.288;2023-03-14T16:04:18;3.05;;;1.08;;
42586;SDS011;28216;53.362;-6.288;2023-03-14T16:06:44;1.25;;;0.73;;
42586;SDS011;28216;53.362;-6.288;2023-03-14T16:09:10;1.67;;;1.02;;
42586;SDS011;28216;53.362;-6.288;2023-03-14T16:11:36;2.15;;;1.30;;